createdAt,value
2022-11-16T00:00:30.396Z,9.73
2022-11-16T00:02:57.587Z,10.00
2022-11-16T00:05:28.306Z,10.27
2022-11-16T00:07:55.981Z,9.52
2022-11-16T00:10:23.289Z,9.73
2022-11-16T00:12:50.599Z,9.23
2022-11-16T00:15:18.062Z,8.82
2022-11-16T00:17:45.200Z,9.57
2022-11-16T00:20:12.615Z,9.52
2022-11-16T00:22:39.808Z,10.23
2022-11-16T00:25:07.341Z,9.90
2022-11-16T00:27:34.639Z,9.38
2022-11-16T00:30:02.152Z,9.63
2022-11-16T00:32:29.630Z,9.93
2022-11-16T00:34:56.912Z,9.07
2022-11-16T00:37:24.061Z,9.10
2022-11-16T00:39:51.196Z,9.60
2022-11-16T00:42:18.385Z,10.00
2022-11-16T00:44:45.709Z,9.00
2022-11-16T00:47:12.960Z,9.00
2022-11-16T00:49:40.107Z,10.38
2022-11-16T00:52:07.404Z,9.23
2022-11-16T00:54:34.766Z,10.52
2022-11-16T00:57:01.960Z,9.77
2022-11-16T00:59:29.276Z,9.32
2022-11-16T01:01:56.527Z,10.10
2022-11-16T01:04:23.704Z,8.98
2022-11-16T01:06:52.405Z,9.35
2022-11-16T01:09:19.794Z,10.02
2022-11-16T01:12:05.888Z,9.13
2022-11-16T01:14:33.118Z,9.38
2022-11-16T01:17:00.393Z,9.65
2022-11-16T01:19:27.763Z,9.85
2022-11-16T01:21:54.985Z,9.82
2022-11-16T01:24:22.165Z,9.05
2022-11-16T01:26:49.299Z,10.15
2022-11-16T01:29:16.659Z,9.50
2022-11-16T01:31:44.092Z,8.75
2022-11-16T01:34:11.293Z,9.20
2022-11-16T01:36:38.601Z,8.95
2022-11-16T01:39:05.878Z,8.75
2022-11-16T01:41:33.090Z,9.07
2022-11-16T01:44:02.217Z,8.32
2022-11-16T01:46:29.960Z,8.15
2022-11-16T01:49:02.781Z,9.25
2022-11-16T01:51:30.324Z,9.48
2022-11-16T01:54:00.279Z,9.02
2022-11-16T01:56:27.601Z,9.30
2022-11-16T01:58:55.067Z,8.80
2022-11-16T02:01:22.373Z,9.38
2022-11-16T02:03:49.649Z,8.43
2022-11-16T02:06:24.659Z,8.68
2022-11-16T02:09:29.525Z,8.75
2022-11-16T02:12:07.599Z,8.05
2022-11-16T02:14:40.754Z,8.05
2022-11-16T02:17:26.751Z,9.20
2022-11-16T02:20:12.395Z,8.00
2022-11-16T02:22:54.867Z,8.88
2022-11-16T02:25:30.383Z,9.15
2022-11-16T02:28:06.326Z,7.97
2022-11-16T02:30:33.852Z,7.88
2022-11-16T02:33:09.657Z,7.93
2022-11-16T02:35:43.057Z,9.07
2022-11-16T02:38:15.516Z,7.97
2022-11-16T02:40:44.724Z,9.30
2022-11-16T02:43:13.731Z,8.15
2022-11-16T02:45:46.504Z,8.25
2022-11-16T02:48:20.048Z,7.68
2022-11-16T02:50:49.035Z,8.20
2022-11-16T02:53:16.202Z,8.55
2022-11-16T02:55:43.349Z,8.77
2022-11-16T02:58:12.208Z,8.23
2022-11-16T03:00:52.062Z,9.18
2022-11-16T03:03:38.705Z,8.73
2022-11-16T03:06:15.124Z,9.18
2022-11-16T03:08:44.933Z,8.85
2022-11-16T03:11:31.136Z,9.60
2022-11-16T03:14:02.514Z,9.45
2022-11-16T03:16:34.686Z,9.27
2022-11-16T03:19:03.646Z,10.02
2022-11-16T03:21:38.092Z,9.55
2022-11-16T03:24:06.077Z,10.20
2022-11-16T03:26:39.559Z,10.15
2022-11-16T03:29:14.714Z,9.80
2022-11-16T03:31:48.602Z,10.70
2022-11-16T03:34:17.563Z,9.88
2022-11-16T03:36:47.208Z,10.98
2022-11-16T03:39:25.703Z,10.93
2022-11-16T03:41:53.091Z,10.68
2022-11-16T03:44:21.175Z,11.48
2022-11-16T03:46:51.308Z,11.48
2022-11-16T03:49:21.740Z,11.70
2022-11-16T03:51:49.711Z,10.93
2022-11-16T03:54:17.181Z,10.70
2022-11-16T03:56:44.430Z,11.50
2022-11-16T03:59:11.601Z,11.55
2022-11-16T04:01:44.562Z,12.20
2022-11-16T04:04:32.457Z,11.88
2022-11-16T04:07:22.553Z,11.48
2022-11-16T04:10:08.364Z,11.55
2022-11-16T04:15:40.410Z,13.20
2022-11-16T04:18:28.244Z,12.88
2022-11-16T04:21:14.329Z,11.75
2022-11-16T04:24:03.960Z,12.70
2022-11-16T04:26:49.948Z,12.18
2022-11-16T04:29:17.329Z,12.77
2022-11-16T04:32:03.248Z,13.05
2022-11-16T04:34:49.385Z,12.13
2022-11-16T04:37:38.088Z,13.48
2022-11-16T04:40:05.557Z,13.27
2022-11-16T04:42:32.928Z,13.13
2022-11-16T04:45:18.971Z,13.88
2022-11-16T04:47:46.602Z,13.88
2022-11-16T04:50:13.935Z,13.57
2022-11-16T04:52:41.133Z,14.15
2022-11-16T04:55:08.466Z,13.23
2022-11-16T04:57:35.628Z,14.02
2022-11-16T05:00:03.671Z,14.25
2022-11-16T05:02:30.883Z,14.07
2022-11-16T05:04:58.267Z,14.23
2022-11-16T05:07:25.894Z,14.52
2022-11-16T05:09:53.395Z,15.02
2022-11-16T05:12:22.699Z,15.40
2022-11-16T05:14:50.033Z,14.10
2022-11-16T05:17:17.741Z,15.80
2022-11-16T05:20:06.162Z,15.73
2022-11-16T05:22:34.132Z,15.23
2022-11-16T05:25:01.779Z,15.35
2022-11-16T05:27:29.583Z,15.30
2022-11-16T05:29:57.316Z,15.70
2022-11-16T05:32:26.069Z,14.88
2022-11-16T05:34:53.264Z,15.27
2022-11-16T05:37:26.812Z,14.70
2022-11-16T05:39:54.951Z,16.30
2022-11-16T05:42:22.148Z,16.25
2022-11-16T05:44:49.347Z,15.55
2022-11-16T05:47:16.572Z,15.73
2022-11-16T05:49:43.962Z,17.27
2022-11-16T05:52:11.153Z,16.23
2022-11-16T05:54:38.403Z,15.38
2022-11-16T05:57:05.872Z,15.95
2022-11-16T05:59:33.261Z,15.77
2022-11-16T06:02:00.469Z,16.20
2022-11-16T06:04:27.745Z,16.02
2022-11-16T06:06:55.129Z,16.05
2022-11-16T06:09:22.323Z,16.85
2022-11-16T06:11:49.619Z,17.08
2022-11-16T06:14:17.492Z,17.05
2022-11-16T06:16:44.915Z,16.77
2022-11-16T06:19:12.388Z,17.75
2022-11-16T06:21:39.601Z,18.10
2022-11-16T06:24:09.137Z,17.15
2022-11-16T06:26:37.069Z,17.63
2022-11-16T06:29:04.384Z,16.75
2022-11-16T06:31:31.719Z,17.90
2022-11-16T06:33:58.943Z,17.60
2022-11-16T06:36:26.131Z,17.75
2022-11-16T06:38:53.439Z,17.70
2022-11-16T06:41:20.726Z,18.77
2022-11-16T06:43:48.242Z,18.30
2022-11-16T06:46:15.528Z,19.35
2022-11-16T06:48:43.337Z,18.17
2022-11-16T06:51:10.627Z,19.17
2022-11-16T06:53:37.880Z,18.58
2022-11-16T06:56:06.037Z,19.65
2022-11-16T06:58:33.820Z,20.45
2022-11-16T07:01:08.184Z,19.92
2022-11-16T07:03:35.439Z,20.95
2022-11-16T07:06:12.551Z,20.42
2022-11-16T07:08:40.132Z,20.65
2022-11-16T07:11:08.166Z,19.80
2022-11-16T07:13:38.920Z,19.60
2022-11-16T07:16:06.999Z,20.88
2022-11-16T07:18:35.612Z,21.55
2022-11-16T07:21:07.433Z,20.77
2022-11-16T07:23:34.789Z,21.23
2022-11-16T07:26:02.961Z,22.48
2022-11-16T07:28:30.685Z,21.08
2022-11-16T07:31:08.737Z,22.50
2022-11-16T07:33:36.135Z,22.55
2022-11-16T07:36:04.413Z,20.90
2022-11-16T07:38:32.584Z,23.00
2022-11-16T07:41:01.393Z,23.38
2022-11-16T07:43:32.008Z,21.27
2022-11-16T07:46:44.487Z,23.02
2022-11-16T07:48:53.268Z,22.30
2022-11-16T07:51:20.825Z,21.95
2022-11-16T07:53:48.056Z,22.20
2022-11-16T07:56:15.209Z,23.15
2022-11-16T07:58:42.429Z,21.15
2022-11-16T08:01:11.513Z,21.63
2022-11-16T08:03:39.609Z,21.73
2022-11-16T08:06:08.213Z,21.45
2022-11-16T08:08:35.769Z,21.65
2022-11-16T08:11:04.292Z,21.08
2022-11-16T08:13:34.206Z,20.40
2022-11-16T08:16:09.545Z,21.88
2022-11-16T08:21:04.982Z,20.88
2022-11-16T08:23:32.245Z,20.08
2022-11-16T08:26:03.832Z,19.75
2022-11-16T08:28:31.656Z,19.10
2022-11-16T08:30:59.608Z,19.63
2022-11-16T08:33:27.487Z,20.65
2022-11-16T08:35:55.052Z,19.42
2022-11-16T08:38:22.228Z,19.80
2022-11-16T08:40:50.925Z,20.10
2022-11-16T08:43:18.699Z,17.95
2022-11-16T08:45:48.368Z,17.95
2022-11-16T08:48:15.703Z,18.77
2022-11-16T08:51:10.483Z,18.20
2022-11-16T08:53:30.212Z,17.70
2022-11-16T08:56:02.418Z,18.40
2022-11-16T08:58:29.852Z,18.20
2022-11-16T09:00:57.316Z,18.55
2022-11-16T09:03:24.504Z,18.38
2022-11-16T09:05:51.719Z,18.60
2022-11-16T09:08:18.881Z,18.02
2022-11-16T09:10:46.048Z,17.13
2022-11-16T09:13:13.345Z,15.90
2022-11-16T09:15:40.656Z,17.42
2022-11-16T09:18:07.873Z,16.98
2022-11-16T09:20:35.086Z,16.13
2022-11-16T09:23:02.428Z,15.75
2022-11-16T09:25:29.660Z,16.00
2022-11-16T09:27:56.867Z,14.50
2022-11-16T09:30:24.078Z,15.93
2022-11-16T09:32:51.307Z,14.88
2022-11-16T09:35:20.710Z,14.27
2022-11-16T09:37:47.864Z,15.20
2022-11-16T09:40:15.067Z,15.32
2022-11-16T09:42:49.517Z,14.50
2022-11-16T09:45:22.843Z,14.82
2022-11-16T09:47:51.619Z,15.43
2022-11-16T09:50:27.712Z,15.18
2022-11-16T09:52:57.304Z,14.52
2022-11-16T09:55:26.638Z,14.40
2022-11-16T09:57:56.311Z,13.57
2022-11-16T10:00:25.144Z,14.55
2022-11-16T10:02:58.411Z,12.75
2022-11-16T10:05:28.861Z,13.32
2022-11-16T10:08:00.238Z,12.80
2022-11-16T10:10:35.036Z,12.75
2022-11-16T10:13:13.282Z,12.15
2022-11-16T10:15:46.559Z,11.88
2022-11-16T10:18:33.979Z,12.05
2022-11-16T10:21:03.528Z,8.98
2022-11-16T10:23:33.952Z,11.93
2022-11-16T10:26:17.475Z,10.82
2022-11-16T10:28:54.071Z,10.98
2022-11-16T10:31:38.800Z,10.80
2022-11-16T10:34:07.784Z,11.40
2022-11-16T10:36:36.303Z,11.90
2022-11-16T10:39:03.563Z,11.98
2022-11-16T10:41:38.065Z,10.85
2022-11-16T10:44:12.382Z,11.40
2022-11-16T10:46:44.625Z,11.60
2022-11-16T10:49:34.868Z,11.73
2022-11-16T10:52:02.083Z,11.65
2022-11-16T10:54:29.203Z,11.52
2022-11-16T10:57:14.506Z,11.85
2022-11-16T10:59:45.782Z,12.10
2022-11-16T11:02:33.631Z,11.43
2022-11-16T11:05:17.675Z,12.95
2022-11-16T11:07:46.465Z,12.65
2022-11-16T11:10:42.937Z,12.32
2022-11-16T11:13:10.083Z,12.23
2022-11-16T11:15:37.589Z,12.05
2022-11-16T11:18:25.688Z,13.35
2022-11-16T11:21:05.688Z,12.35
2022-11-16T11:23:39.770Z,13.13
2022-11-16T11:26:07.056Z,13.05
2022-11-16T11:28:47.202Z,14.50
2022-11-16T11:31:25.715Z,14.02
2022-11-16T11:33:54.880Z,13.95
2022-11-16T11:36:22.947Z,13.60
2022-11-16T11:39:01.781Z,13.20
2022-11-16T11:41:33.166Z,13.90
2022-11-16T11:44:04.893Z,13.90
2022-11-16T11:47:11.035Z,14.15
2022-11-16T11:49:35.492Z,14.35
2022-11-16T11:52:05.871Z,13.10
2022-11-16T11:54:34.055Z,14.15
2022-11-16T11:57:03.970Z,14.15
2022-11-16T11:59:31.184Z,14.70
2022-11-16T12:02:07.557Z,14.35
2022-11-16T12:04:54.918Z,13.73
2022-11-16T12:07:31.206Z,14.20
2022-11-16T12:09:58.367Z,13.88
2022-11-16T12:12:38.283Z,14.45
2022-11-16T12:15:24.291Z,13.05
2022-11-16T12:18:10.366Z,12.57
2022-11-16T12:20:46.744Z,12.43
2022-11-16T12:23:19.920Z,11.57
2022-11-16T12:25:53.156Z,10.93
2022-11-16T12:28:23.122Z,10.07
2022-11-16T12:31:02.217Z,10.98
2022-11-16T12:33:29.377Z,9.70
2022-11-16T12:36:02.310Z,9.52
2022-11-16T12:38:58.720Z,11.80
2022-11-16T12:41:25.863Z,10.85
2022-11-16T12:44:15.580Z,10.23
2022-11-16T12:46:42.749Z,10.13
2022-11-16T12:49:24.203Z,10.73
2022-11-16T12:51:57.263Z,10.65
2022-11-16T12:54:36.624Z,10.27
2022-11-16T12:57:03.751Z,11.07
2022-11-16T12:59:30.925Z,9.20
2022-11-16T13:02:00.592Z,9.77
2022-11-16T13:04:40.431Z,8.85
2022-11-16T13:07:11.522Z,8.70
2022-11-16T13:09:41.527Z,9.50
2022-11-16T13:12:14.216Z,8.57
2022-11-16T13:14:43.612Z,9.38
2022-11-16T13:17:14.297Z,9.25
2022-11-16T13:19:42.731Z,8.48
2022-11-16T13:22:18.254Z,8.05
2022-11-16T13:25:04.232Z,7.40
2022-11-16T13:27:40.514Z,7.50
2022-11-16T13:30:19.700Z,7.70
2022-11-16T13:32:49.873Z,7.15
2022-11-16T13:35:18.004Z,7.95
2022-11-16T13:37:49.161Z,7.90
2022-11-16T13:40:23.816Z,7.05
2022-11-16T13:43:10.051Z,7.38
2022-11-16T13:45:49.734Z,7.72
2022-11-16T13:48:20.045Z,8.70
2022-11-16T13:50:48.739Z,7.70
2022-11-16T13:56:10.351Z,8.32
2022-11-16T13:58:38.973Z,8.43
2022-11-16T14:01:08.927Z,7.88
2022-11-16T14:03:40.212Z,7.05
2022-11-16T14:06:27.347Z,7.47
2022-11-16T14:08:55.371Z,8.38
2022-11-16T14:11:28.740Z,7.82
2022-11-16T14:13:55.905Z,7.65
2022-11-16T14:16:23.168Z,8.35
2022-11-16T14:18:51.436Z,7.78
2022-11-16T14:21:25.647Z,8.43
2022-11-16T14:24:11.324Z,8.48
2022-11-16T14:26:47.646Z,8.43
2022-11-16T14:29:34.263Z,9.13
2022-11-16T14:32:02.874Z,8.63
2022-11-16T14:34:32.829Z,9.88
2022-11-16T14:37:01.088Z,9.93
2022-11-16T14:39:38.410Z,9.38
2022-11-16T14:42:08.460Z,11.05
2022-11-16T14:44:39.160Z,11.35
2022-11-16T14:47:06.849Z,10.82
2022-11-16T14:49:35.384Z,11.95
2022-11-16T14:52:03.900Z,11.38
2022-11-16T14:54:35.767Z,12.02
2022-11-16T14:57:04.568Z,11.43
2022-11-16T14:59:32.328Z,10.95
2022-11-16T15:02:02.011Z,12.13
2022-11-16T15:04:29.193Z,12.15
2022-11-16T15:06:59.018Z,12.20
2022-11-16T15:09:30.637Z,10.85
2022-11-16T15:12:17.309Z,12.23
2022-11-16T15:15:05.458Z,11.88
2022-11-16T15:17:33.636Z,11.35
2022-11-16T15:20:16.284Z,11.68
2022-11-16T15:22:44.853Z,11.63
2022-11-16T15:25:24.862Z,12.15
2022-11-16T15:27:52.251Z,11.65
2022-11-16T15:30:20.948Z,11.75
2022-11-16T15:32:49.083Z,11.57
2022-11-16T15:35:18.882Z,11.10
2022-11-16T15:37:46.173Z,11.00
2022-11-16T15:40:13.832Z,11.52
2022-11-16T15:42:42.308Z,11.50
2022-11-16T15:45:15.611Z,15.18
2022-11-16T15:47:45.428Z,20.52
2022-11-16T15:50:18.257Z,23.58
2022-11-16T15:52:47.164Z,24.67
2022-11-16T15:55:21.564Z,27.33
2022-11-16T15:57:59.233Z,27.42
2022-11-16T16:00:27.391Z,28.42
2022-11-16T16:02:57.208Z,27.30
2022-11-16T16:05:37.276Z,29.80
2022-11-16T16:08:05.667Z,31.88
2022-11-16T16:10:33.075Z,32.17
2022-11-16T16:13:01.171Z,30.73
2022-11-16T16:15:30.267Z,30.50
2022-11-16T16:17:58.505Z,31.90
2022-11-16T16:20:26.431Z,34.85
2022-11-16T16:22:54.525Z,34.33
2022-11-16T16:25:33.240Z,37.53
2022-11-16T16:28:00.793Z,40.95
2022-11-16T16:30:31.833Z,40.88
2022-11-16T16:32:59.177Z,44.75
2022-11-16T16:35:26.899Z,43.95
2022-11-16T16:37:58.790Z,42.25
2022-11-16T16:40:26.556Z,41.33
2022-11-16T16:42:54.117Z,43.28
2022-11-16T16:45:25.003Z,42.97
2022-11-16T16:47:52.187Z,43.03
2022-11-16T16:50:19.331Z,41.90
2022-11-16T16:52:46.485Z,43.97
2022-11-16T16:55:13.713Z,42.40
2022-11-16T16:57:40.904Z,44.05
2022-11-16T17:00:08.384Z,43.50
2022-11-16T17:02:37.008Z,40.22
2022-11-16T17:05:04.291Z,42.20
2022-11-16T17:07:31.447Z,42.33
2022-11-16T17:09:58.645Z,41.78
2022-11-16T17:12:25.869Z,38.72
2022-11-16T17:14:53.092Z,40.38
2022-11-16T17:17:20.836Z,41.67
2022-11-16T17:19:48.196Z,37.95
2022-11-16T17:22:15.376Z,37.70
2022-11-16T17:24:42.542Z,37.80
2022-11-16T17:27:09.734Z,36.05
2022-11-16T17:29:36.881Z,36.97
2022-11-16T17:32:04.342Z,36.45
2022-11-16T17:34:32.135Z,34.95
2022-11-16T17:36:59.357Z,34.30
2022-11-16T17:39:27.497Z,34.50
2022-11-16T17:41:54.745Z,33.13
2022-11-16T17:44:22.422Z,32.53
2022-11-16T17:46:49.781Z,34.30
2022-11-16T17:49:17.000Z,33.63
2022-11-16T17:51:44.397Z,31.02
2022-11-16T17:54:11.627Z,32.58
2022-11-16T17:56:39.048Z,34.33
2022-11-16T17:59:06.303Z,34.40
2022-11-16T18:01:33.696Z,33.95
2022-11-16T18:04:02.523Z,32.03
2022-11-16T18:06:29.772Z,35.55
2022-11-16T18:08:57.629Z,32.28
2022-11-16T18:11:25.983Z,34.20
2022-11-16T18:13:54.186Z,34.40
2022-11-16T18:16:22.644Z,35.08
2022-11-16T18:18:50.786Z,33.60
2022-11-16T18:21:20.829Z,35.17
2022-11-16T18:23:48.556Z,36.22
2022-11-16T18:26:17.839Z,34.03
2022-11-16T18:28:45.492Z,32.83
2022-11-16T18:31:13.994Z,34.35
2022-11-16T18:33:41.166Z,34.67
2022-11-16T18:36:08.924Z,33.15
2022-11-16T18:38:39.408Z,30.55
2022-11-16T18:41:17.222Z,33.35
2022-11-16T18:43:50.720Z,32.95
2022-11-16T18:46:19.065Z,33.85
2022-11-16T18:48:46.920Z,32.45
2022-11-16T18:51:15.250Z,32.92
2022-11-16T18:53:43.315Z,33.65
2022-11-16T18:56:11.911Z,31.02
2022-11-16T18:58:54.624Z,33.13
2022-11-16T19:01:23.542Z,34.20
2022-11-16T19:03:51.776Z,34.13
2022-11-16T19:06:19.205Z,33.42
2022-11-16T19:08:53.756Z,32.25
2022-11-16T19:11:22.554Z,34.45
2022-11-16T19:13:52.672Z,34.13
2022-11-16T19:16:19.868Z,33.83
2022-11-16T19:18:47.066Z,32.22
2022-11-16T19:21:15.014Z,34.83
2022-11-16T19:23:46.173Z,33.38
2022-11-16T19:26:14.853Z,33.08
2022-11-16T19:28:45.933Z,34.05
2022-11-16T19:31:14.298Z,32.67
2022-11-16T19:33:41.980Z,36.80
2022-11-16T19:36:13.776Z,34.45
2022-11-16T19:38:41.462Z,31.75
2022-11-16T19:41:09.165Z,32.97
2022-11-16T19:43:36.662Z,31.90
2022-11-16T19:46:05.123Z,34.95
2022-11-16T19:48:33.068Z,33.88
2022-11-16T19:51:13.876Z,33.25
2022-11-16T19:53:41.330Z,34.33
2022-11-16T19:56:10.845Z,31.50
2022-11-16T19:58:39.030Z,33.38
2022-11-16T20:01:06.452Z,35.00
2022-11-16T20:03:34.908Z,34.00
2022-11-16T20:06:09.358Z,34.40
2022-11-16T20:08:37.068Z,34.35
2022-11-16T20:11:14.210Z,33.10
2022-11-16T20:13:42.552Z,34.40
2022-11-16T20:16:11.003Z,35.15
2022-11-16T20:18:38.925Z,33.53
2022-11-16T20:21:06.948Z,35.30
2022-11-16T20:23:35.049Z,33.53
2022-11-16T20:26:09.480Z,34.03
2022-11-16T20:28:41.055Z,32.72
2022-11-16T20:31:09.030Z,35.67
2022-11-16T20:33:36.757Z,34.08
2022-11-16T20:36:05.152Z,36.08
2022-11-16T20:38:34.051Z,34.70
2022-11-16T20:41:11.356Z,35.58
2022-11-16T20:43:42.201Z,36.03
2022-11-16T20:46:10.423Z,34.30
2022-11-16T20:48:38.348Z,35.63
2022-11-16T20:51:06.403Z,34.00
2022-11-16T20:53:34.037Z,34.65
2022-11-16T20:56:04.401Z,36.42
2022-11-16T20:58:32.062Z,35.83
2022-11-16T21:01:06.631Z,36.47
2022-11-16T21:03:34.419Z,35.85
2022-11-16T21:06:02.008Z,37.42
2022-11-16T21:08:29.971Z,37.15
2022-11-16T21:10:57.329Z,36.55
2022-11-16T21:13:43.101Z,37.17
2022-11-16T21:18:40.759Z,33.15
2022-11-16T21:21:09.215Z,34.53
2022-11-16T21:23:37.393Z,35.85
2022-11-16T21:26:05.419Z,34.35
2022-11-16T21:28:32.888Z,32.10
2022-11-16T21:31:01.065Z,32.20
2022-11-16T21:33:28.439Z,32.25
2022-11-16T21:35:56.247Z,30.38
2022-11-16T21:38:23.979Z,31.45
2022-11-16T21:40:51.188Z,30.77
2022-11-16T21:43:18.582Z,30.25
2022-11-16T21:45:46.618Z,28.75
2022-11-16T21:48:14.074Z,28.77
2022-11-16T21:50:41.586Z,27.45
2022-11-16T21:53:08.967Z,29.00
2022-11-16T21:55:36.491Z,27.95
2022-11-16T21:58:04.018Z,26.50
2022-11-16T22:00:31.279Z,28.98
2022-11-16T22:02:58.473Z,27.15
2022-11-16T22:05:44.284Z,26.77
2022-11-16T22:08:11.817Z,24.73
2022-11-16T22:10:39.083Z,25.80
2022-11-16T22:13:06.381Z,26.30
2022-11-16T22:15:33.595Z,24.83
2022-11-16T22:18:02.110Z,24.73
2022-11-16T22:20:29.378Z,26.13
2022-11-16T22:22:56.505Z,24.27
2022-11-16T22:25:23.771Z,23.70
2022-11-16T22:28:20.189Z,23.40
2022-11-16T22:30:38.308Z,23.00
2022-11-16T22:33:05.459Z,22.88
2022-11-16T22:35:32.601Z,20.85
2022-11-16T22:37:59.780Z,20.88
2022-11-16T22:40:26.954Z,21.70
2022-11-16T22:42:57.639Z,21.23
2022-11-16T22:45:25.269Z,20.52
2022-11-16T22:47:54.924Z,19.45
2022-11-16T22:50:24.096Z,19.35
2022-11-16T22:52:51.256Z,18.25
2022-11-16T22:55:18.523Z,17.80
2022-11-16T22:57:45.684Z,18.05
2022-11-16T23:00:13.807Z,16.63
2022-11-16T23:02:41.352Z,16.55
2022-11-16T23:05:08.808Z,16.38
2022-11-16T23:07:36.116Z,16.30
2022-11-16T23:10:03.355Z,15.32
2022-11-16T23:12:49.301Z,16.52
2022-11-16T23:15:35.292Z,15.68
2022-11-16T23:18:02.494Z,13.32
2022-11-16T23:20:48.119Z,15.40
2022-11-16T23:23:37.532Z,15.77
2022-11-16T23:26:24.787Z,14.30
2022-11-16T23:28:52.078Z,14.55
2022-11-16T23:31:19.336Z,14.45
2022-11-16T23:33:47.778Z,13.48
2022-11-16T23:36:15.438Z,14.45
2022-11-16T23:38:42.647Z,15.38
2022-11-16T23:41:28.659Z,14.80
2022-11-16T23:43:59.121Z,14.25
2022-11-16T23:46:27.300Z,14.73
2022-11-16T23:48:54.573Z,15.30
2022-11-16T23:51:23.471Z,13.63
2022-11-16T23:53:53.958Z,13.98
2022-11-16T23:56:21.695Z,13.40
2022-11-16T23:58:48.916Z,14.43
